createdAt,value
2023-05-10T00:01:53.583Z,101188.34
2023-05-10T00:04:21.782Z,101190.44
2023-05-10T00:06:50.921Z,101183.75
2023-05-10T00:09:18.650Z,101183.16
2023-05-10T00:11:46.344Z,101187.22
2023-05-10T00:14:14.039Z,101183.13
2023-05-10T00:16:41.841Z,101182.94
2023-05-10T00:19:09.694Z,101183.28
2023-05-10T00:21:37.439Z,101187.06
2023-05-10T00:24:07.260Z,101188.69
2023-05-10T00:26:35.016Z,101188.16
2023-05-10T00:29:02.689Z,101179.50
2023-05-10T00:31:30.556Z,101185.50
2023-05-10T00:33:58.311Z,101182.63
2023-05-10T00:36:26.111Z,101188.34
2023-05-10T00:38:53.945Z,101179.19
2023-05-10T00:41:23.098Z,101177.84
2023-05-10T00:43:50.848Z,101179.41
2023-05-10T00:46:18.796Z,101184.06
2023-05-10T00:48:46.960Z,101189.88
2023-05-10T00:51:15.406Z,101179.50
2023-05-10T00:53:43.376Z,101183.91
2023-05-10T00:56:11.536Z,101181.06
2023-05-10T00:58:41.057Z,101190.63
2023-05-10T01:01:10.144Z,101191.31
2023-05-10T01:03:38.473Z,101188.63
2023-05-10T01:06:06.816Z,101186.28
2023-05-10T01:08:34.873Z,101191.47
2023-05-10T01:11:03.273Z,101187.22
2023-05-10T01:13:35.788Z,101192.78
2023-05-10T01:16:05.855Z,101187.75
2023-05-10T01:18:37.185Z,101187.06
2023-05-10T01:21:16.929Z,101189.75
2023-05-10T01:24:07.705Z,101186.75
2023-05-10T01:27:22.206Z,101187.56
2023-05-10T01:32:41.991Z,101187.53
2023-05-10T01:35:15.826Z,101181.69
2023-05-10T01:37:47.352Z,101185.03
2023-05-10T01:40:21.881Z,101190.22
2023-05-10T01:42:53.674Z,101184.97
2023-05-10T01:45:29.459Z,101186.41
2023-05-10T01:48:07.752Z,101185.78
2023-05-10T01:50:38.128Z,101179.63
2023-05-10T01:53:08.722Z,101188.31
2023-05-10T01:55:41.928Z,101178.81
2023-05-10T01:58:12.129Z,101187.00
2023-05-10T02:00:44.633Z,101181.38
2023-05-10T02:03:16.161Z,101183.19
2023-05-10T02:05:46.520Z,101180.75
2023-05-10T02:08:16.770Z,101187.03
2023-05-10T02:10:46.713Z,101183.84
2023-05-10T02:13:17.179Z,101189.03
2023-05-10T02:15:45.274Z,101186.59
2023-05-10T02:18:16.595Z,101182.19
2023-05-10T02:20:45.271Z,101191.81
2023-05-10T02:23:13.591Z,101201.34
2023-05-10T02:25:43.202Z,101199.19
2023-05-10T02:28:13.453Z,101207.06
2023-05-10T02:30:41.729Z,101202.03
2023-05-10T02:33:10.130Z,101205.88
2023-05-10T02:35:40.476Z,101213.66
2023-05-10T02:38:09.690Z,101213.34
2023-05-10T02:40:38.908Z,101209.97
2023-05-10T02:43:08.383Z,101210.63
2023-05-10T02:45:39.845Z,101215.81
2023-05-10T02:48:08.066Z,101211.34
2023-05-10T02:50:37.795Z,101216.84
2023-05-10T02:53:13.804Z,101218.41
2023-05-10T02:55:43.889Z,101220.28
2023-05-10T02:58:11.719Z,101231.09
2023-05-10T03:00:39.416Z,101224.53
2023-05-10T03:03:07.774Z,101220.91
2023-05-10T03:05:35.555Z,101216.06
2023-05-10T03:08:05.237Z,101223.84
2023-05-10T03:10:40.103Z,101219.56
2023-05-10T03:13:13.190Z,101219.88
2023-05-10T03:15:51.878Z,101224.63
2023-05-10T03:18:24.492Z,101223.94
2023-05-10T03:20:58.535Z,101214.56
2023-05-10T03:23:30.856Z,101219.19
2023-05-10T03:26:01.494Z,101218.50
2023-05-10T03:28:29.731Z,101220.38
2023-05-10T03:30:58.777Z,101211.81
2023-05-10T03:33:26.548Z,101210.78
2023-05-10T03:35:54.253Z,101214.78
2023-05-10T03:38:22.029Z,101217.56
2023-05-10T03:40:49.789Z,101216.94
2023-05-10T03:43:18.878Z,101212.75
2023-05-10T03:45:46.696Z,101223.75
2023-05-10T03:48:14.757Z,101215.28
2023-05-10T03:50:42.630Z,101217.44
2023-05-10T03:53:10.291Z,101224.41
2023-05-10T03:55:37.998Z,101214.13
2023-05-10T03:58:05.702Z,101211.88
2023-05-10T04:00:35.026Z,101218.94
2023-05-10T04:03:02.873Z,101222.38
2023-05-10T04:05:31.070Z,101221.47
2023-05-10T04:07:58.953Z,101214.97
2023-05-10T04:10:26.682Z,101214.69
2023-05-10T04:12:54.485Z,101228.81
2023-05-10T04:15:22.232Z,101221.31
2023-05-10T04:17:52.109Z,101220.91
2023-05-10T04:20:20.057Z,101225.44
2023-05-10T04:22:47.779Z,101220.78
2023-05-10T04:25:15.739Z,101220.72
2023-05-10T04:27:43.616Z,101226.13
2023-05-10T04:30:12.145Z,101225.31
2023-05-10T04:32:39.905Z,101227.63
2023-05-10T04:35:11.047Z,101218.50
2023-05-10T04:37:38.799Z,101224.97
2023-05-10T04:40:07.988Z,101225.22
2023-05-10T04:42:35.691Z,101224.09
2023-05-10T04:45:03.694Z,101226.81
2023-05-10T04:47:31.402Z,101231.31
2023-05-10T04:49:59.393Z,101233.00
2023-05-10T04:52:28.488Z,101229.41
2023-05-10T04:54:56.360Z,101227.63
2023-05-10T04:57:24.117Z,101234.88
2023-05-10T04:59:51.891Z,101224.91
2023-05-10T05:02:19.618Z,101233.16
2023-05-10T05:04:47.431Z,101230.88
2023-05-10T05:07:15.161Z,101236.88
2023-05-10T05:09:44.293Z,101237.59
2023-05-10T05:12:15.020Z,101239.81
2023-05-10T05:14:43.114Z,101246.94
2023-05-10T05:17:10.878Z,101242.06
2023-05-10T05:19:38.769Z,101247.41
2023-05-10T05:22:08.742Z,101258.34
2023-05-10T05:24:38.681Z,101246.75
2023-05-10T05:27:08.169Z,101253.34
2023-05-10T05:29:36.031Z,101258.94
2023-05-10T05:32:04.254Z,101258.19
2023-05-10T05:34:32.079Z,101258.97
2023-05-10T05:36:59.780Z,101263.34
2023-05-10T05:39:27.519Z,101262.03
2023-05-10T05:41:55.207Z,101270.09
2023-05-10T05:44:24.290Z,101260.91
2023-05-10T05:46:52.029Z,101263.22
2023-05-10T05:49:19.760Z,101270.59
2023-05-10T05:51:47.500Z,101280.00
2023-05-10T05:54:15.292Z,101277.84
2023-05-10T05:56:43.126Z,101278.72
2023-05-10T05:59:10.842Z,101280.31
2023-05-10T06:01:39.963Z,101282.16
2023-05-10T06:04:07.795Z,101283.03
2023-05-10T06:06:35.602Z,101288.94
2023-05-10T06:09:03.390Z,101294.34
2023-05-10T06:11:32.975Z,101295.44
2023-05-10T06:14:00.663Z,101294.84
2023-05-10T06:16:28.443Z,101286.44
2023-05-10T06:18:57.590Z,101295.78
2023-05-10T06:21:25.374Z,101291.19
2023-05-10T06:23:53.213Z,101299.06
2023-05-10T06:26:21.838Z,101293.50
2023-05-10T06:28:49.591Z,101299.94
2023-05-10T06:31:17.673Z,101294.63
2023-05-10T06:33:45.643Z,101294.81
2023-05-10T06:36:15.151Z,101297.06
2023-05-10T06:38:42.851Z,101291.28
2023-05-10T06:41:10.568Z,101300.56
2023-05-10T06:43:40.865Z,101296.53
2023-05-10T06:46:08.944Z,101286.22
2023-05-10T06:48:36.709Z,101294.34
2023-05-10T06:51:04.541Z,101291.16
2023-05-10T06:53:33.699Z,101296.53
2023-05-10T06:56:01.473Z,101290.38
2023-05-10T06:58:29.127Z,101298.09
2023-05-10T07:00:56.888Z,101297.00
2023-05-10T07:03:24.666Z,101293.66
2023-05-10T07:05:52.476Z,101295.75
2023-05-10T07:08:20.480Z,101298.06
2023-05-10T07:10:49.515Z,101299.44
2023-05-10T07:13:17.280Z,101296.31
2023-05-10T07:15:45.600Z,101292.97
2023-05-10T07:18:13.314Z,101304.50
2023-05-10T07:20:41.613Z,101302.69
2023-05-10T07:23:09.375Z,101297.69
2023-05-10T07:25:37.097Z,101308.56
2023-05-10T07:28:06.491Z,101304.56
2023-05-10T07:30:34.314Z,101298.84
2023-05-10T07:33:02.298Z,101304.22
2023-05-10T07:35:30.112Z,101304.13
2023-05-10T07:37:58.396Z,101309.41
2023-05-10T07:40:26.166Z,101299.47
2023-05-10T07:42:53.891Z,101302.00
2023-05-10T07:45:23.055Z,101297.38
2023-05-10T07:47:50.916Z,101294.69
2023-05-10T07:50:18.982Z,101297.38
2023-05-10T07:52:46.941Z,101298.88
2023-05-10T07:55:14.985Z,101297.78
2023-05-10T07:57:43.774Z,101297.41
2023-05-10T08:00:15.127Z,101294.06
2023-05-10T08:02:44.374Z,101302.94
2023-05-10T08:05:12.287Z,101301.25
2023-05-10T08:07:40.024Z,101310.81
2023-05-10T08:10:09.370Z,101310.78
2023-05-10T08:12:37.564Z,101313.28
2023-05-10T08:15:06.087Z,101315.91
2023-05-10T08:17:33.832Z,101319.59
2023-05-10T08:20:03.446Z,101318.81
2023-05-10T08:22:31.308Z,101319.16
2023-05-10T08:24:59.026Z,101312.56
2023-05-10T08:27:26.774Z,101316.63
2023-05-10T08:29:54.531Z,101312.59
2023-05-10T08:32:22.257Z,101309.78
2023-05-10T08:34:49.978Z,101306.06
2023-05-10T08:37:19.021Z,101311.84
2023-05-10T08:39:48.910Z,101318.50
2023-05-10T08:42:21.155Z,101315.09
2023-05-10T08:44:50.724Z,101314.53
2023-05-10T08:47:20.745Z,101313.19
2023-05-10T08:49:49.966Z,101316.94
2023-05-10T08:52:20.852Z,101316.72
2023-05-10T08:54:49.152Z,101322.09
2023-05-10T08:57:17.010Z,101314.41
2023-05-10T08:59:45.036Z,101313.31
2023-05-10T09:02:17.319Z,101312.63
2023-05-10T09:04:46.486Z,101313.44
2023-05-10T09:07:14.643Z,101311.81
2023-05-10T09:09:43.889Z,101306.25
2023-05-10T09:12:12.552Z,101304.31
2023-05-10T09:14:41.292Z,101311.88
2023-05-10T09:17:09.356Z,101305.28
2023-05-10T09:19:37.178Z,101304.69
2023-05-10T09:22:04.947Z,101303.63
2023-05-10T09:24:32.848Z,101308.00
2023-05-10T09:27:03.684Z,101317.53
2023-05-10T09:29:41.791Z,101317.41
2023-05-10T09:32:09.779Z,101323.81
2023-05-10T09:34:40.892Z,101309.44
2023-05-10T09:37:09.151Z,101317.41
2023-05-10T09:39:38.573Z,101319.66
2023-05-10T09:42:09.602Z,101327.81
2023-05-10T09:44:39.051Z,101321.13
2023-05-10T09:47:06.814Z,101324.47
2023-05-10T09:49:34.955Z,101333.22
2023-05-10T09:52:04.810Z,101318.56
2023-05-10T09:54:33.015Z,101322.41
2023-05-10T09:57:01.616Z,101320.97
2023-05-10T09:59:31.399Z,101322.44
2023-05-10T10:02:00.387Z,101321.22
2023-05-10T10:04:28.931Z,101313.31
2023-05-10T10:07:04.863Z,101317.63
2023-05-10T10:09:33.454Z,101317.19
2023-05-10T10:12:01.529Z,101313.22
2023-05-10T10:14:31.392Z,101321.41
2023-05-10T10:17:08.434Z,101316.66
2023-05-10T10:19:38.107Z,101305.13
2023-05-10T10:22:06.425Z,101298.09
2023-05-10T10:24:34.179Z,101303.69
2023-05-10T10:27:11.362Z,101293.66
2023-05-10T10:29:46.863Z,101295.66
2023-05-10T10:32:30.056Z,101290.69
2023-05-10T10:34:58.483Z,101299.75
2023-05-10T10:37:42.964Z,101299.81
2023-05-10T10:40:25.665Z,101292.69
2023-05-10T10:42:54.654Z,101299.94
2023-05-10T10:45:25.086Z,101307.94
2023-05-10T10:48:21.472Z,101308.47
2023-05-10T10:50:49.174Z,101306.38
2023-05-10T10:53:17.094Z,101297.66
2023-05-10T10:55:49.038Z,101300.69
2023-05-10T10:58:32.699Z,101293.53
2023-05-10T11:01:16.340Z,101302.84
2023-05-10T11:04:18.735Z,101291.09
2023-05-10T11:06:46.547Z,101279.75
2023-05-10T11:09:15.268Z,101281.94
2023-05-10T11:11:55.904Z,101281.41
2023-05-10T11:14:24.490Z,101277.84
2023-05-10T11:16:53.686Z,101271.63
2023-05-10T11:19:21.906Z,101266.94
2023-05-10T11:21:50.926Z,101266.94
2023-05-10T11:24:21.014Z,101269.34
2023-05-10T11:26:52.216Z,101264.94
2023-05-10T11:29:20.196Z,101272.59
2023-05-10T11:31:49.565Z,101280.94
2023-05-10T11:34:27.595Z,101284.88
2023-05-10T11:36:56.548Z,101288.09
2023-05-10T11:39:28.646Z,101304.75
2023-05-10T11:41:56.788Z,101300.97
2023-05-10T11:44:24.637Z,101299.38
2023-05-10T11:46:52.433Z,101297.13
2023-05-10T11:49:20.238Z,101308.25
2023-05-10T11:51:49.450Z,101299.66
2023-05-10T11:54:17.234Z,101301.63
2023-05-10T11:56:45.921Z,101299.44
2023-05-10T11:59:16.574Z,101291.84
2023-05-10T12:01:44.526Z,101296.53
2023-05-10T12:04:12.597Z,101294.81
2023-05-10T12:06:43.104Z,101291.28
2023-05-10T12:09:12.223Z,101292.78
2023-05-10T12:11:43.900Z,101286.03
2023-05-10T12:14:12.195Z,101291.03
2023-05-10T12:16:40.106Z,101292.22
2023-05-10T12:19:08.018Z,101298.66
2023-05-10T12:21:35.758Z,101294.09
2023-05-10T12:24:05.878Z,101301.75
2023-05-10T12:26:35.405Z,101296.78
2023-05-10T12:29:17.685Z,101299.63
2023-05-10T12:31:52.779Z,101286.44
2023-05-10T12:34:27.903Z,101288.16
2023-05-10T12:36:55.996Z,101288.13
2023-05-10T12:39:23.756Z,101288.91
2023-05-10T12:41:53.218Z,101297.63
2023-05-10T12:44:20.931Z,101305.44
2023-05-10T12:46:48.780Z,101301.19
2023-05-10T12:49:16.565Z,101309.22
2023-05-10T12:51:44.274Z,101306.19
2023-05-10T12:54:11.942Z,101300.41
2023-05-10T12:56:39.635Z,101296.94
2023-05-10T12:59:08.654Z,101291.97
2023-05-10T13:01:36.401Z,101296.66
2023-05-10T13:04:04.221Z,101298.31
2023-05-10T13:06:32.579Z,101294.13
2023-05-10T13:09:00.335Z,101298.66
2023-05-10T13:11:28.464Z,101293.34
2023-05-10T13:13:56.548Z,101301.31
2023-05-10T13:16:25.657Z,101295.72
2023-05-10T13:18:53.545Z,101290.59
2023-05-10T13:21:21.280Z,101296.63
2023-05-10T13:23:48.978Z,101291.91
2023-05-10T13:26:16.682Z,101286.00
2023-05-10T13:28:44.365Z,101288.13
2023-05-10T13:31:12.105Z,101299.16
2023-05-10T13:33:41.234Z,101291.72
2023-05-10T13:36:09.234Z,101287.69
2023-05-10T13:38:37.006Z,101281.94
2023-05-10T13:41:05.194Z,101280.84
2023-05-10T13:43:32.871Z,101271.75
2023-05-10T13:46:00.652Z,101269.63
2023-05-10T13:48:28.906Z,101282.88
2023-05-10T13:50:58.052Z,101270.59
2023-05-10T13:53:25.907Z,101274.22
2023-05-10T13:55:53.583Z,101280.59
2023-05-10T13:58:21.305Z,101287.06
2023-05-10T14:00:49.014Z,101299.94
2023-05-10T14:03:16.784Z,101299.88
2023-05-10T14:05:45.934Z,101306.22
2023-05-10T14:08:15.661Z,101319.28
2023-05-10T14:10:43.363Z,101326.25
2023-05-10T14:13:11.019Z,101322.09
2023-05-10T14:15:38.718Z,101316.91
2023-05-10T14:18:06.622Z,101316.88
2023-05-10T14:20:34.736Z,101312.44
2023-05-10T14:23:02.396Z,101310.78
2023-05-10T14:25:31.546Z,101311.75
2023-05-10T14:27:59.283Z,101306.25
2023-05-10T14:30:26.971Z,101305.13
2023-05-10T14:32:55.170Z,101302.53
2023-05-10T14:35:23.195Z,101296.16
2023-05-10T14:37:51.248Z,101290.97
2023-05-10T14:40:19.717Z,101285.34
2023-05-10T14:42:48.733Z,101281.38
2023-05-10T14:45:16.683Z,101276.69
2023-05-10T14:47:44.599Z,101282.19
2023-05-10T14:50:21.479Z,101278.34
2023-05-10T14:52:59.942Z,101276.69
2023-05-10T14:55:27.650Z,101274.16
2023-05-10T14:57:57.123Z,101271.47
2023-05-10T15:00:24.841Z,101275.38
2023-05-10T15:02:53.025Z,101271.63
2023-05-10T15:05:21.197Z,101271.75
2023-05-10T15:07:49.296Z,101265.69
2023-05-10T15:10:17.448Z,101262.91
2023-05-10T15:12:45.118Z,101259.19
2023-05-10T15:15:14.227Z,101256.59
2023-05-10T15:17:41.953Z,101257.88
2023-05-10T15:20:10.426Z,101257.78
2023-05-10T15:22:39.184Z,101256.16
2023-05-10T15:25:07.873Z,101251.88
2023-05-10T15:27:35.605Z,101256.50
2023-05-10T15:30:03.461Z,101252.22
2023-05-10T15:32:32.620Z,101264.44
2023-05-10T15:35:00.385Z,101253.84
2023-05-10T15:37:28.442Z,101252.03
2023-05-10T15:40:03.352Z,101246.19
2023-05-10T15:42:31.257Z,101245.16
2023-05-10T15:44:58.944Z,101244.03
2023-05-10T15:47:27.941Z,101251.03
2023-05-10T15:49:56.986Z,101240.16
2023-05-10T15:52:24.900Z,101240.22
2023-05-10T15:54:52.885Z,101249.44
2023-05-10T15:57:20.683Z,101252.91
2023-05-10T15:59:48.376Z,101253.63
2023-05-10T16:02:17.621Z,101263.06
2023-05-10T16:04:45.712Z,101269.78
2023-05-10T16:07:14.787Z,101265.97
2023-05-10T16:09:42.639Z,101268.50
2023-05-10T16:12:10.397Z,101260.44
2023-05-10T16:14:38.178Z,101270.50
2023-05-10T16:17:06.022Z,101271.50
2023-05-10T16:19:33.836Z,101270.91
2023-05-10T16:22:01.775Z,101256.22
2023-05-10T16:24:31.414Z,101265.44
2023-05-10T16:26:59.183Z,101258.19
2023-05-10T16:29:26.871Z,101248.50
2023-05-10T16:31:55.025Z,101258.47
2023-05-10T16:34:24.454Z,101252.66
2023-05-10T16:36:52.391Z,101248.66
2023-05-10T16:39:20.179Z,101254.72
2023-05-10T16:41:49.311Z,101258.81
2023-05-10T16:44:18.882Z,101256.88
2023-05-10T16:46:48.289Z,101268.97
2023-05-10T16:49:16.094Z,101264.94
2023-05-10T16:51:44.366Z,101266.47
2023-05-10T16:54:12.112Z,101276.28
2023-05-10T16:56:39.883Z,101279.75
2023-05-10T16:59:09.065Z,101271.97
2023-05-10T17:01:36.950Z,101278.00
2023-05-10T17:04:05.184Z,101281.56
2023-05-10T17:06:33.278Z,101276.72
2023-05-10T17:09:01.193Z,101282.97
2023-05-10T17:11:29.928Z,101276.53
2023-05-10T17:13:57.672Z,101269.72
2023-05-10T17:16:26.951Z,101268.75
2023-05-10T17:18:54.763Z,101264.66
2023-05-10T17:21:22.580Z,101267.13
2023-05-10T17:23:50.303Z,101258.19
2023-05-10T17:26:18.053Z,101247.59
2023-05-10T17:28:45.926Z,101254.50
2023-05-10T17:31:13.659Z,101253.63
2023-05-10T17:33:42.714Z,101263.78
2023-05-10T17:36:10.506Z,101252.34
2023-05-10T17:38:38.544Z,101260.44
2023-05-10T17:41:06.308Z,101257.94
2023-05-10T17:43:34.034Z,101258.81
2023-05-10T17:46:01.836Z,101253.41
2023-05-10T17:48:29.576Z,101257.72
2023-05-10T17:50:58.811Z,101255.25
2023-05-10T17:53:26.683Z,101257.19
2023-05-10T17:55:57.882Z,101262.06
2023-05-10T17:58:25.978Z,101258.38
2023-05-10T18:00:54.094Z,101265.28
2023-05-10T18:03:22.245Z,101256.00
2023-05-10T18:05:50.274Z,101244.97
2023-05-10T18:08:22.741Z,101246.19
2023-05-10T18:10:50.547Z,101241.75
2023-05-10T18:13:18.248Z,101235.50
2023-05-10T18:15:46.000Z,101245.53
2023-05-10T18:18:13.762Z,101242.75
2023-05-10T18:20:41.474Z,101239.72
2023-05-10T18:23:09.212Z,101248.53
2023-05-10T18:25:38.350Z,101263.34
2023-05-10T18:28:07.854Z,101284.63
2023-05-10T18:30:35.536Z,101278.81
2023-05-10T18:33:03.469Z,101283.31
2023-05-10T18:35:31.249Z,101273.94
2023-05-10T18:37:59.104Z,101284.16
2023-05-10T18:40:28.639Z,101290.22
2023-05-10T18:42:58.231Z,101288.31
2023-05-10T18:45:26.001Z,101294.03
2023-05-10T18:47:53.716Z,101293.22
2023-05-10T18:50:21.570Z,101290.59
2023-05-10T18:52:49.279Z,101284.47
2023-05-10T18:55:17.209Z,101286.41
2023-05-10T18:57:45.500Z,101284.34
2023-05-10T19:00:15.126Z,101291.19
2023-05-10T19:02:42.926Z,101297.03
2023-05-10T19:05:11.411Z,101295.28
2023-05-10T19:07:40.524Z,101291.25
2023-05-10T19:10:09.060Z,101296.81
2023-05-10T19:12:37.454Z,101299.84
2023-05-10T19:15:06.295Z,101294.91
2023-05-10T19:17:36.886Z,101301.81
2023-05-10T19:20:06.990Z,101297.81
2023-05-10T19:22:45.537Z,101298.88
2023-05-10T19:25:24.634Z,101304.41
2023-05-10T19:27:52.324Z,101315.31
2023-05-10T19:30:20.024Z,101313.34
2023-05-10T19:32:49.379Z,101321.16
2023-05-10T19:35:17.472Z,101313.72
2023-05-10T19:37:47.454Z,101309.22
2023-05-10T19:40:17.263Z,101319.28
2023-05-10T19:42:45.094Z,101317.59
2023-05-10T19:45:15.489Z,101323.59
2023-05-10T19:47:44.135Z,101323.94
2023-05-10T19:50:13.900Z,101318.56
2023-05-10T19:52:41.941Z,101327.06
2023-05-10T19:55:10.543Z,101333.50
2023-05-10T19:57:38.539Z,101325.03
2023-05-10T20:00:08.176Z,101329.75
2023-05-10T20:02:35.910Z,101331.75
2023-05-10T20:05:03.713Z,101338.66
2023-05-10T20:07:32.829Z,101341.78
2023-05-10T20:10:00.836Z,101341.22
2023-05-10T20:12:28.528Z,101339.19
2023-05-10T20:14:56.518Z,101350.50
2023-05-10T20:17:24.230Z,101347.47
2023-05-10T20:19:51.986Z,101346.09
2023-05-10T20:22:19.701Z,101351.63
2023-05-10T20:24:48.798Z,101350.34
2023-05-10T20:27:16.981Z,101355.69
2023-05-10T20:29:44.901Z,101355.13
2023-05-10T20:32:12.823Z,101349.31
2023-05-10T20:34:40.830Z,101356.69
2023-05-10T20:37:08.668Z,101351.88
2023-05-10T20:39:36.352Z,101358.25
2023-05-10T20:42:05.625Z,101356.34
2023-05-10T20:44:33.385Z,101356.75
2023-05-10T20:47:01.300Z,101363.88
2023-05-10T20:49:29.453Z,101358.63
2023-05-10T20:51:57.326Z,101361.06
2023-05-10T20:54:25.286Z,101359.03
2023-05-10T20:56:53.018Z,101362.44
2023-05-10T20:59:22.246Z,101361.22
2023-05-10T21:01:50.097Z,101377.28
2023-05-10T21:04:17.866Z,101370.34
2023-05-10T21:06:46.825Z,101364.72
2023-05-10T21:09:14.722Z,101361.88
2023-05-10T21:11:42.505Z,101354.38
2023-05-10T21:14:10.508Z,101356.72
2023-05-10T21:16:40.029Z,101358.25
2023-05-10T21:19:09.295Z,101367.53
2023-05-10T21:21:37.115Z,101365.59
2023-05-10T21:24:05.523Z,101359.16
2023-05-10T21:26:33.196Z,101354.88
2023-05-10T21:29:00.879Z,101351.69
2023-05-10T21:31:28.966Z,101355.88
2023-05-10T21:33:58.005Z,101363.97
2023-05-10T21:36:26.907Z,101359.75
2023-05-10T21:38:54.775Z,101362.81
2023-05-10T21:41:22.742Z,101369.06
2023-05-10T21:43:50.452Z,101365.06
2023-05-10T21:46:18.269Z,101361.69
2023-05-10T21:48:46.148Z,101354.50
2023-05-10T21:51:15.699Z,101357.44
2023-05-10T21:53:43.397Z,101359.88
2023-05-10T21:56:11.591Z,101346.38
2023-05-10T21:58:39.351Z,101350.16
2023-05-10T22:01:07.153Z,101350.84
2023-05-10T22:03:34.927Z,101354.88
2023-05-10T22:06:02.745Z,101354.44
2023-05-10T22:08:31.825Z,101352.16
2023-05-10T22:10:59.511Z,101348.25
2023-05-10T22:13:27.202Z,101340.97
2023-05-10T22:15:54.947Z,101347.22
2023-05-10T22:18:22.675Z,101351.47
2023-05-10T22:20:50.439Z,101349.81
2023-05-10T22:23:18.203Z,101344.81
2023-05-10T22:25:47.475Z,101360.41
2023-05-10T22:28:15.209Z,101347.38
2023-05-10T22:30:43.218Z,101346.00
2023-05-10T22:33:11.007Z,101343.34
2023-05-10T22:35:38.781Z,101345.50
2023-05-10T22:38:06.526Z,101347.41
2023-05-10T22:40:34.266Z,101341.16
2023-05-10T22:43:03.454Z,101344.69
2023-05-10T22:45:31.147Z,101351.69
2023-05-10T22:47:58.846Z,101346.31
2023-05-10T22:50:26.778Z,101348.78
2023-05-10T22:52:54.497Z,101349.78
2023-05-10T22:55:22.161Z,101353.63
2023-05-10T22:57:50.059Z,101339.75
2023-05-10T23:00:19.686Z,101344.81
2023-05-10T23:02:47.836Z,101344.03
2023-05-10T23:05:15.926Z,101350.94
2023-05-10T23:07:43.793Z,101351.03
2023-05-10T23:10:12.187Z,101349.03
2023-05-10T23:12:39.884Z,101344.78
2023-05-10T23:15:08.505Z,101339.25
2023-05-10T23:17:37.589Z,101347.06
2023-05-10T23:20:05.932Z,101344.88
2023-05-10T23:22:33.614Z,101343.31
2023-05-10T23:25:01.348Z,101339.66
2023-05-10T23:27:29.995Z,101336.56
2023-05-10T23:29:57.707Z,101335.34
2023-05-10T23:32:25.630Z,101333.19
2023-05-10T23:34:54.896Z,101342.47
2023-05-10T23:37:22.620Z,101341.69
2023-05-10T23:39:50.388Z,101340.63
2023-05-10T23:42:18.074Z,101343.94
2023-05-10T23:44:46.747Z,101333.56
2023-05-10T23:47:14.536Z,101334.41
2023-05-10T23:49:42.961Z,101328.88
2023-05-10T23:52:12.064Z,101335.38
2023-05-10T23:54:39.970Z,101336.59
2023-05-10T23:57:07.786Z,101336.72
2023-05-10T23:59:35.537Z,101330.00
